Kezdőlap
METAR-TAF:

METAR-TAF

Repülőterek :

Chesterfield Inlet, Nunavut, Kanada

földrajzi szélesség: 63-20N, földrajzi hosszúság: 090-43W, magasság: 11 m

Jelenlegi meteorológiai megfigyelések

A jelentés 27 perccel ezelõtt készült, 17:00 UTC
Délkeleti szél 12 kt
Hőmérséklet 15°C
Páratartalom 67%
Légköri nyomás 1019 hPa
Látótávolság: 24.1 km
Kevés felhő 4500 lábon
Szórványos felhőzet 22000 lábon

METAR: CYCS 131700Z 14012KT 15SM FEW045 SCT220 15/09 A3010 RMK SC1CI3 SC TR SLP195

Idő: 12:27 (17:27 UTC)


TAF: hiányzik

Meteorológiai megfigyelések és előrejelzések több, mint 4000 repülőtéren (METAR és TAF jelentéseket).

A térképen piros és sárga pontok jelzik az elérhető meteorológiai állomásokat.

Mozgassa az egeret a pont fölött, hogy megjelenjen az állomás neve.

Azután kattintson az időjárási megfigyelések és előrejelzések megtekintéséhez.

A térkép megváltoztatása: kattintson a fekete keresztel jelölt zöld gombra ráközelítéshez, a vonallal jelölt zöld gombra távolításhoz, vagy a zöld nyilakra a szomszédos térképek eléréséhez.


METAR-TAF: